Time;durP1;ratioP1;P1;durP2;ratioP2;P2;SDS_P1;SDS_P2;PMS_P1;PMS_P2;Temp;Humidity;BMP_temperature;BMP_pressure;BME280_temperature;BME280_humidity;BME280_pressure;Samples;Min_cycle;Max_cycle;Signal;HPM_P1;HPM_P2
2021/01/27 00:01:40;;;;;;;2.65;1.90;;;17.80;52.50;;;;;;5084558;28;20196;-57
2021/01/27 00:04:06;;;;;;;2.47;1.73;;;17.80;52.40;;;;;;5084535;28;20173;-56
2021/01/27 00:06:31;;;;;;;1.88;1.77;;;17.80;52.50;;;;;;5084431;28;20170;-55
2021/01/27 00:08:57;;;;;;;2.00;1.58;;;17.70;52.50;;;;;;5084609;28;20674;-57
2021/01/27 00:11:23;;;;;;;1.50;1.40;;;17.70;52.40;;;;;;5084634;28;20204;-55
2021/01/27 00:13:48;;;;;;;2.90;1.52;;;17.70;52.40;;;;;;5084554;28;20185;-57
2021/01/27 00:16:14;;;;;;;2.17;1.95;;;17.70;52.40;;;;;;5084248;28;20186;-56
2021/01/27 00:18:39;;;;;;;2.47;1.92;;;17.70;52.40;;;;;;5084533;28;20273;-52
2021/01/27 00:21:05;;;;;;;1.80;1.67;;;17.70;53.10;;;;;;5084286;28;20178;-55
2021/01/27 00:23:30;;;;;;;2.10;1.70;;;17.60;52.40;;;;;;5084411;28;20174;-59
2021/01/27 00:25:56;;;;;;;2.13;1.73;;;17.70;52.50;;;;;;5084426;28;20169;-56
2021/01/27 00:28:21;;;;;;;1.75;1.60;;;17.60;52.40;;;;;;5083905;28;20313;-58
2021/01/27 00:30:47;;;;;;;2.03;1.80;;;17.60;52.40;;;;;;5084558;28;20212;-57
2021/01/27 00:33:14;;;;;;;2.85;2.13;;;17.60;52.50;;;;;;5084400;28;20170;-55
2021/01/27 00:35:41;;;;;;;2.47;1.77;;;17.60;52.50;;;;;;5084411;28;20170;-58
2021/01/27 00:38:11;;;;;;;1.80;1.70;;;17.60;52.40;;;;;;5084591;28;20173;-59
2021/01/27 00:40:37;;;;;;;2.67;2.08;;;17.60;52.40;;;;;;5084266;28;20178;-57
2021/01/27 00:43:02;;;;;;;2.30;1.88;;;17.60;52.30;;;;;;5084142;28;20174;-56
2021/01/27 00:45:28;;;;;;;2.38;1.83;;;17.50;52.30;;;;;;5084088;28;20525;-55
2021/01/27 00:47:53;;;;;;;3.15;1.90;;;17.50;52.30;;;;;;5083735;28;20258;-53
2021/01/27 00:50:19;;;;;;;2.63;1.83;;;17.50;52.30;;;;;;5084081;28;20174;-56
2021/01/27 00:52:45;;;;;;;2.40;1.92;;;17.40;52.30;;;;;;5084456;28;20639;-57
2021/01/27 00:55:15;;;;;;;1.88;1.77;;;17.50;52.30;;;;;;5084110;28;20177;-59
2021/01/27 00:57:41;;;;;;;2.33;1.73;;;17.40;52.30;;;;;;5084206;28;20266;-55
2021/01/27 01:00:15;;;;;;;2.08;1.88;;;17.40;52.30;;;;;;5083841;28;20205;-56
2021/01/27 01:02:41;;;;;;;2.30;2.10;;;17.40;52.20;;;;;;5083988;28;20347;-58
2021/01/27 01:05:09;;;;;;;3.10;2.30;;;17.40;52.30;;;;;;5086199;28;20262;-57
2021/01/27 01:07:35;;;;;;;2.88;2.13;;;17.30;52.10;;;;;;5069780;28;20217;-58
2021/01/27 01:10:00;;;;;;;2.55;2.10;;;17.40;52.10;;;;;;5087774;28;20174;-57
2021/01/27 01:12:26;;;;;;;2.03;1.83;;;17.30;52.20;;;;;;5087650;28;20631;-58
2021/01/27 01:14:52;;;;;;;3.58;1.90;;;17.30;52.10;;;;;;5087662;28;20245;-54
2021/01/27 01:17:17;;;;;;;1.88;1.63;;;17.40;52.10;;;;;;5087369;28;20269;-57
2021/01/27 01:19:43;;;;;;;2.10;1.90;;;17.30;52.10;;;;;;5087629;28;20212;-55
2021/01/27 01:22:08;;;;;;;2.63;1.75;;;17.30;52.00;;;;;;5087525;28;20196;-57
2021/01/27 01:24:34;;;;;;;4.30;1.98;;;17.20;51.90;;;;;;5087797;28;20953;-58
2021/01/27 01:26:59;;;;;;;2.00;1.83;;;17.30;51.90;;;;;;5087714;28;20707;-54
2021/01/27 01:29:25;;;;;;;2.33;2.03;;;17.30;51.90;;;;;;5087811;28;20679;-54
2021/01/27 01:31:50;;;;;;;3.80;2.20;;;17.20;51.80;;;;;;5087404;28;20178;-53
2021/01/27 01:34:16;;;;;;;2.78;2.03;;;17.20;51.90;;;;;;5087568;28;20194;-53
2021/01/27 01:36:41;;;;;;;3.50;2.25;;;17.20;51.80;;;;;;5087359;28;20173;-57
2021/01/27 01:39:07;;;;;;;1.80;1.70;;;17.20;51.70;;;;;;5087153;28;20268;-58
2021/01/27 01:41:32;;;;;;;2.05;1.85;;;17.20;51.80;;;;;;5087508;28;20624;-58
2021/01/27 01:43:58;;;;;;;2.38;2.00;;;17.20;51.80;;;;;;5087482;28;20285;-58
2021/01/27 01:46:24;;;;;;;2.15;1.95;;;17.10;51.70;;;;;;5087143;28;20277;-56
2021/01/27 01:48:52;;;;;;;2.88;2.08;;;17.10;51.80;;;;;;5087051;28;20205;-56
2021/01/27 01:51:40;;;;;;;2.03;1.83;;;17.10;51.70;;;;;;5069225;28;20181;-55
2021/01/27 01:54:33;;;;;;;2.22;2.03;;;17.10;51.70;;;;;;5069297;28;20189;-53
2021/01/27 01:57:10;;;;;;;1.98;1.80;;;17.10;51.60;;;;;;5086768;28;20170;-56
2021/01/27 01:59:36;;;;;;;2.30;2.10;;;17.10;51.50;;;;;;5069152;28;20181;-56
2021/01/27 02:02:03;;;;;;;2.10;1.70;;;17.10;51.60;;;;;;5069476;28;20170;-57
2021/01/27 02:04:51;;;;;;;2.42;1.80;;;17.10;51.70;;;;;;5069110;28;20178;-55
2021/01/27 02:07:17;;;;;;;2.28;1.90;;;17.10;51.60;;;;;;5068746;28;20170;-58
2021/01/27 02:09:43;;;;;;;1.65;1.55;;;17.00;51.50;;;;;;5087056;28;20521;-59
2021/01/27 02:12:19;;;;;;;2.20;2.08;;;17.00;51.60;;;;;;5086913;28;21019;-55
2021/01/27 02:14:49;;;;;;;1.70;1.60;;;17.00;51.80;;;;;;5069980;28;20178;-55
2021/01/27 02:17:34;;;;;;;2.38;2.17;;;17.00;51.60;;;;;;5086182;28;20342;-54
2021/01/27 02:20:20;;;;;;;2.70;1.90;;;17.00;51.60;;;;;;5068765;28;20177;-59
2021/01/27 02:22:55;;;;;;;2.08;1.88;;;17.00;51.50;;;;;;5068563;28;20173;-58
2021/01/27 02:25:28;;;;;;;2.00;1.80;;;17.00;51.50;;;;;;5068587;28;20178;-54
2021/01/27 02:27:54;;;;;;;1.95;1.73;;;17.00;51.50;;;;;;5068555;28;20689;-56
2021/01/27 02:30:40;;;;;;;1.83;1.73;;;16.90;51.50;;;;;;5068627;28;20182;-51
2021/01/27 02:33:31;;;;;;;2.40;1.80;;;17.00;51.50;;;;;;5071092;28;20627;-53
2021/01/27 02:36:15;;;;;;;3.03;1.95;;;17.00;51.60;;;;;;5070963;28;20178;-53
2021/01/27 02:38:46;;;;;;;1.90;1.70;;;16.90;51.50;;;;;;5086147;28;20213;-52
2021/01/27 02:41:40;;;;;;;3.00;1.88;;;16.90;51.50;;;;;;5086604;28;20197;-53
2021/01/27 02:44:08;;;;;;;2.83;1.83;;;16.90;51.50;;;;;;5085912;28;20265;-53
2021/01/27 02:46:38;;;;;;;2.03;1.92;;;16.90;51.50;;;;;;5067842;28;20209;-54
2021/01/27 02:49:10;;;;;;;3.17;2.08;;;16.90;51.30;;;;;;5085730;28;20205;-56
2021/01/27 02:52:09;;;;;;;3.08;2.00;;;16.90;51.40;;;;;;5085916;28;20177;-54
2021/01/27 02:55:12;;;;;;;2.33;1.75;;;16.90;51.40;;;;;;5052773;28;21073;-53
2021/01/27 02:57:44;;;;;;;3.20;1.63;;;16.80;51.30;;;;;;5068203;28;20165;-55
2021/01/27 03:00:25;;;;;;;2.03;1.90;;;16.80;51.30;;;;;;5067680;28;20197;-52
2021/01/27 03:02:52;;;;;;;2.22;2.00;;;16.80;51.30;;;;;;5067968;28;20284;-57
2021/01/27 03:05:29;;;;;;;2.25;1.70;;;16.80;51.30;;;;;;5067734;28;20269;-59
2021/01/27 03:08:02;;;;;;;1.75;1.65;;;16.80;51.30;;;;;;5086075;28;20265;-59
2021/01/27 03:10:31;;;;;;;2.50;1.88;;;16.80;51.20;;;;;;5068282;28;20261;-54
2021/01/27 03:12:57;;;;;;;2.00;1.83;;;16.80;51.30;;;;;;5067474;28;20177;-58
2021/01/27 03:15:22;;;;;;;1.77;1.67;;;16.80;51.30;;;;;;5085470;28;20231;-55
2021/01/27 03:17:58;;;;;;;2.78;1.70;;;16.80;51.20;;;;;;5085451;28;20238;-56
2021/01/27 03:20:29;;;;;;;2.05;1.85;;;16.70;51.20;;;;;;5067505;28;20377;-56
2021/01/27 03:23:04;;;;;;;1.80;1.70;;;16.70;51.20;;;;;;5067394;28;20181;-52
2021/01/27 03:25:34;;;;;;;1.80;1.70;;;16.70;51.20;;;;;;5067342;28;20162;-55
2021/01/27 03:28:26;;;;;;;2.30;1.63;;;16.70;51.20;;;;;;5066319;28;20624;-52
2021/01/27 03:30:52;;;;;;;2.80;1.80;;;16.70;51.10;;;;;;5085347;28;20545;-57
2021/01/27 03:33:23;;;;;;;1.60;1.50;;;16.70;51.10;;;;;;5067457;28;20174;-51
2021/01/27 03:35:49;;;;;;;2.10;1.70;;;16.70;51.10;;;;;;5067614;28;20170;-55
2021/01/27 03:38:39;;;;;;;1.55;1.45;;;16.70;51.20;;;;;;5067206;28;20176;-55
2021/01/27 03:41:16;;;;;;;2.10;1.90;;;16.70;51.10;;;;;;5066910;28;20187;-57
2021/01/27 03:44:10;;;;;;;1.52;1.42;;;16.60;51.00;;;;;;5067155;28;20658;-56
2021/01/27 03:46:52;;;;;;;1.70;1.60;;;16.60;51.00;;;;;;5061919;28;20212;-57
2021/01/27 03:49:28;;;;;;;2.50;1.67;;;16.60;51.00;;;;;;5068148;28;20217;-59
2021/01/27 03:52:08;;;;;;;1.60;1.50;;;16.60;51.00;;;;;;5066323;28;20176;-55
2021/01/27 03:54:34;;;;;;;1.55;1.45;;;16.60;51.00;;;;;;5067363;28;20173;-58
2021/01/27 03:57:02;;;;;;;1.45;1.35;;;16.60;50.90;;;;;;5066620;28;20174;-56
2021/01/27 03:59:28;;;;;;;1.92;1.70;;;16.60;51.00;;;;;;5084746;28;20178;-56
2021/01/27 04:01:55;;;;;;;1.75;1.65;;;16.60;50.90;;;;;;5066573;28;20970;-57
2021/01/27 04:04:21;;;;;;;2.95;1.52;;;16.60;50.90;;;;;;5084825;28;20332;-55
2021/01/27 04:06:46;;;;;;;2.97;1.63;;;16.60;50.90;;;;;;5084649;28;20946;-59
2021/01/27 04:09:12;;;;;;;1.88;1.70;;;16.60;50.90;;;;;;5084715;28;20308;-57
2021/01/27 04:11:38;;;;;;;1.50;1.40;;;16.60;50.90;;;;;;5084560;28;20856;-56
2021/01/27 04:14:04;;;;;;;1.60;1.50;;;16.50;51.00;;;;;;5084485;28;20265;-58
2021/01/27 04:16:30;;;;;;;1.30;1.27;;;16.60;51.00;;;;;;5066451;28;20174;-55
2021/01/27 04:18:57;;;;;;;1.65;1.52;;;16.50;50.80;;;;;;5066158;28;20526;-59
2021/01/27 04:21:23;;;;;;;1.92;1.30;;;16.50;50.80;;;;;;5084135;28;20181;-54
2021/01/27 04:23:49;;;;;;;1.40;1.30;;;16.50;50.90;;;;;;5084145;28;20169;-55
2021/01/27 04:26:14;;;;;;;2.00;1.70;;;16.50;50.80;;;;;;5084381;28;20189;-57
2021/01/27 04:28:40;;;;;;;1.50;1.40;;;16.50;50.80;;;;;;5084222;28;20209;-52
2021/01/27 04:31:05;;;;;;;1.95;1.50;;;16.50;50.80;;;;;;5083962;28;20181;-56
2021/01/27 04:33:31;;;;;;;1.83;1.70;;;16.50;50.80;;;;;;5084454;28;20511;-48
2021/01/27 04:35:56;;;;;;;1.83;1.40;;;16.50;50.80;;;;;;5084395;28;20540;-56
2021/01/27 04:38:22;;;;;;;1.83;1.50;;;16.50;50.70;;;;;;5084196;28;20178;-57
2021/01/27 04:40:47;;;;;;;1.98;1.17;;;16.40;50.70;;;;;;5084082;28;20174;-57
2021/01/27 04:43:23;;;;;;;1.85;1.63;;;16.40;50.80;;;;;;5066085;28;20170;-56
2021/01/27 04:46:00;;;;;;;1.70;1.60;;;16.40;50.70;;;;;;5066229;28;20173;-52
2021/01/27 04:48:48;;;;;;;1.50;1.40;;;16.50;50.90;;;;;;5066823;28;20296;-58
2021/01/27 04:51:17;;;;;;;1.42;1.33;;;16.40;50.70;;;;;;5084133;28;20174;-56
2021/01/27 04:53:42;;;;;;;2.17;1.80;;;16.40;50.80;;;;;;5066414;28;20208;-57
2021/01/27 04:56:17;;;;;;;1.30;1.20;;;16.40;51.50;;;;;;5084374;28;20217;-53
2021/01/27 04:59:02;;;;;;;1.63;1.52;;;16.40;50.80;;;;;;5066796;28;20169;-57
2021/01/27 05:01:36;;;;;;;1.50;1.40;;;16.40;50.80;;;;;;5083865;28;20173;-52
2021/01/27 05:04:11;;;;;;;1.63;1.30;;;16.40;50.80;;;;;;5084289;28;20639;-58
2021/01/27 05:06:40;;;;;;;2.25;1.35;;;16.40;50.70;;;;;;5083789;28;20689;-56
2021/01/27 05:09:15;;;;;;;1.50;1.40;;;16.30;50.80;;;;;;5065995;28;20213;-55
2021/01/27 05:11:41;;;;;;;1.67;1.40;;;16.30;50.70;;;;;;5084024;28;20166;-52
2021/01/27 05:14:07;;;;;;;1.70;1.60;;;16.30;50.70;;;;;;5065762;28;20178;-56
2021/01/27 05:16:33;;;;;;;1.30;1.20;;;16.30;50.80;;;;;;5065753;28;20181;-53
2021/01/27 05:19:05;;;;;;;1.65;1.20;;;16.30;50.70;;;;;;5083646;28;20212;-55
2021/01/27 05:21:32;;;;;;;1.60;1.50;;;16.30;50.80;;;;;;5065952;28;20189;-57
2021/01/27 05:23:57;;;;;;;1.40;1.30;;;16.30;50.70;;;;;;5083921;28;20182;-58
2021/01/27 05:26:32;;;;;;;1.15;1.02;;;16.20;50.70;;;;;;5084073;28;20178;-52
2021/01/27 05:29:06;;;;;;;2.42;1.48;;;16.30;50.70;;;;;;5065545;28;20693;-58
2021/01/27 05:32:02;;;;;;;1.75;1.40;;;16.30;50.70;;;;;;5065572;28;20174;-55
2021/01/27 05:34:38;;;;;;;1.45;1.35;;;16.30;50.70;;;;;;5083753;28;20171;-52
2021/01/27 05:37:05;;;;;;;1.35;1.25;;;16.20;50.50;;;;;;5066114;28;20170;-53
2021/01/27 05:39:31;;;;;;;1.35;1.25;;;16.20;50.60;;;;;;5065778;28;20166;-55
2021/01/27 05:42:10;;;;;;;1.40;1.30;;;16.20;50.70;;;;;;5065536;28;20970;-58
2021/01/27 05:44:36;;;;;;;1.25;1.25;;;16.20;50.70;;;;;;5083979;28;20177;-57
2021/01/27 05:47:24;;;;;;;1.35;1.20;;;16.20;50.70;;;;;;5084006;28;20174;-56
2021/01/27 05:49:50;;;;;;;1.73;1.40;;;16.20;50.70;;;;;;5065537;28;20190;-57
2021/01/27 05:52:18;;;;;;;1.38;1.27;;;16.20;50.60;;;;;;5067797;28;20169;-57
2021/01/27 05:54:44;;;;;;;1.58;1.48;;;16.20;50.60;;;;;;5086988;28;20203;-57
2021/01/27 05:57:24;;;;;;;1.88;1.35;;;16.20;50.70;;;;;;5069308;28;20169;-56
2021/01/27 05:59:50;;;;;;;1.40;1.30;;;16.20;50.70;;;;;;5070688;28;20665;-53
2021/01/27 06:02:15;;;;;;;1.45;1.35;;;16.20;50.80;;;;;;5068755;28;20178;-55
2021/01/27 06:04:41;;;;;;;1.20;1.13;;;16.20;50.80;;;;;;5068900;28;20221;-56
2021/01/27 06:07:08;;;;;;;1.35;1.30;;;16.20;51.00;;;;;;5068515;28;20191;-53
2021/01/27 06:09:43;;;;;;;1.30;1.20;;;16.30;51.00;;;;;;5087026;28;20261;-51
2021/01/27 06:12:18;;;;;;;1.33;1.23;;;16.40;51.10;;;;;;5068891;28;20176;-53
2021/01/27 06:14:43;;;;;;;1.20;1.10;;;16.70;50.90;;;;;;5087040;28;20189;-58
2021/01/27 06:17:28;;;;;;;1.30;1.20;;;16.90;50.70;;;;;;5086535;28;20182;-58
2021/01/27 06:20:04;;;;;;;1.40;1.30;;;17.10;50.30;;;;;;5086308;28;20595;-58
2021/01/27 06:22:59;;;;;;;1.40;1.30;;;17.30;50.20;;;;;;5069227;28;20176;-54
2021/01/27 06:25:26;;;;;;;1.23;1.13;;;17.60;49.80;;;;;;5068586;28;20170;-58
2021/01/27 06:27:55;;;;;;;1.08;1.00;;;17.80;49.30;;;;;;5068298;28;20209;-57
2021/01/27 06:30:41;;;;;;;1.40;1.30;;;18.00;49.00;;;;;;5086400;28;20540;-58
2021/01/27 06:33:22;;;;;;;1.35;1.25;;;18.10;48.80;;;;;;5068374;28;20180;-56
2021/01/27 06:36:35;;;;;;;1.27;1.17;;;18.20;48.60;;;;;;5085953;28;20631;-58
2021/01/27 06:39:48;;;;;;;1.33;1.23;;;18.20;48.60;;;;;;5003821;28;20192;-58
2021/01/27 06:42:42;;;;;;;1.35;1.10;;;18.30;48.60;;;;;;4945649;29;20217;-57
2021/01/27 06:45:52;;;;;;;1.40;1.15;;;18.30;48.50;;;;;;4983181;28;20583;-59
2021/01/27 06:48:40;;;;;;;1.35;1.10;;;18.30;48.50;;;;;;4999546;28;20361;-59
2021/01/27 06:51:06;;;;;;;1.55;1.30;;;18.40;48.50;;;;;;5003470;28;20271;-56
2021/01/27 06:54:01;;;;;;;1.10;1.00;;;18.40;48.40;;;;;;5054391;28;20194;-55
2021/01/27 06:56:59;;;;;;;1.20;0.98;;;18.40;48.50;;;;;;5067905;28;20193;-55
2021/01/27 07:00:02;;;;;;;1.13;1.02;;;18.40;48.50;;;;;;5086018;28;20188;-56
2021/01/27 07:02:45;;;;;;;1.20;1.10;;;18.40;48.40;;;;;;5070563;28;20182;-58
2021/01/27 07:05:49;;;;;;;1.15;1.10;;;18.30;48.50;;;;;;5069557;28;20177;-54
2021/01/27 07:08:49;;;;;;;0.90;0.90;;;18.20;48.70;;;;;;5070351;28;20209;-57
2021/01/27 07:11:50;;;;;;;0.90;0.90;;;18.10;48.90;;;;;;5085272;28;20957;-54
2021/01/27 07:14:23;;;;;;;0.93;0.90;;;18.00;49.20;;;;;;5070187;28;20207;-55
2021/01/27 07:16:57;;;;;;;0.90;0.90;;;18.00;49.20;;;;;;5067687;28;20166;-57
2021/01/27 07:19:45;;;;;;;1.08;1.05;;;18.00;49.30;;;;;;5084996;28;20243;-53
2021/01/27 07:22:11;;;;;;;1.00;1.00;;;18.00;49.30;;;;;;5085587;28;20643;-55
2021/01/27 07:24:41;;;;;;;1.30;1.20;;;18.00;49.30;;;;;;5085462;28;20185;-57
2021/01/27 07:27:20;;;;;;;0.70;0.70;;;18.00;49.30;;;;;;5067286;28;20577;-54
2021/01/27 07:29:54;;;;;;;0.90;0.90;;;18.00;49.30;;;;;;5085446;28;20241;-57
2021/01/27 07:32:26;;;;;;;0.85;0.77;;;18.00;49.20;;;;;;5084982;28;20177;-58
2021/01/27 07:35:03;;;;;;;0.98;0.82;;;18.00;49.30;;;;;;5067140;28;20188;-55
2021/01/27 07:37:29;;;;;;;1.20;1.10;;;17.90;49.40;;;;;;5067071;28;20264;-57
2021/01/27 07:39:59;;;;;;;0.95;0.90;;;17.80;49.60;;;;;;5066964;28;20173;-58
2021/01/27 07:42:27;;;;;;;0.98;0.98;;;17.80;49.70;;;;;;5067020;28;20185;-57
2021/01/27 07:45:02;;;;;;;1.00;1.00;;;17.70;49.80;;;;;;5066847;28;20170;-57
2021/01/27 07:47:54;;;;;;;0.90;0.90;;;17.70;49.80;;;;;;5085010;28;20188;-59
2021/01/27 07:50:21;;;;;;;0.80;0.80;;;17.70;49.80;;;;;;5050110;28;20935;-60
2021/01/27 07:53:15;;;;;;;1.15;1.05;;;17.70;49.80;;;;;;5085000;28;20213;-59
2021/01/27 07:56:09;;;;;;;3.20;0.98;;;17.70;49.90;;;;;;5069569;28;20239;-61
2021/01/27 07:58:47;;;;;;;0.98;0.88;;;17.70;50.00;;;;;;5053255;28;20186;-62
2021/01/27 08:01:23;;;;;;;0.90;0.90;;;17.70;50.00;;;;;;5066626;28;20201;-60
2021/01/27 08:04:03;;;;;;;1.48;0.93;;;17.70;50.10;;;;;;5066586;28;20170;-60
2021/01/27 08:06:29;;;;;;;1.00;1.00;;;17.60;50.30;;;;;;5066830;28;20174;-60
2021/01/27 08:08:59;;;;;;;1.10;1.00;;;17.60;50.50;;;;;;5066942;28;20209;-61
2021/01/27 08:11:39;;;;;;;1.85;0.90;;;17.60;50.70;;;;;;5066592;28;20863;-61
2021/01/27 08:14:05;;;;;;;1.60;1.27;;;17.50;50.80;;;;;;5066075;28;20169;-62
2021/01/27 08:16:36;;;;;;;1.52;1.15;;;17.50;51.50;;;;;;5084777;28;20260;-60
2021/01/27 08:19:10;;;;;;;1.08;1.00;;;17.50;50.90;;;;;;5066362;28;20181;-61
2021/01/27 08:21:45;;;;;;;3.10;1.05;;;17.50;50.80;;;;;;5084706;28;20502;-60
2021/01/27 08:24:35;;;;;;;1.20;0.82;;;17.60;50.80;;;;;;5084594;28;20180;-61
2021/01/27 08:27:10;;;;;;;1.95;1.00;;;17.60;50.70;;;;;;5084416;28;20225;-61
2021/01/27 08:30:02;;;;;;;1.00;1.00;;;17.70;50.70;;;;;;5084418;28;20293;-60
2021/01/27 08:32:37;;;;;;;2.10;1.00;;;17.60;50.70;;;;;;5084493;28;20635;-60
2021/01/27 08:35:31;;;;;;;1.15;1.05;;;17.60;50.80;;;;;;5066120;28;20173;-61
2021/01/27 08:38:24;;;;;;;1.35;0.98;;;17.50;50.80;;;;;;5083630;28;20269;-61
2021/01/27 08:40:49;;;;;;;1.20;1.10;;;17.50;50.90;;;;;;5066112;28;20174;-59
2021/01/27 08:43:15;;;;;;;0.90;0.80;;;17.40;50.90;;;;;;5066174;28;20552;-60
2021/01/27 08:45:41;;;;;;;1.70;1.00;;;17.40;51.10;;;;;;5066277;28;20165;-61
2021/01/27 08:48:06;;;;;;;1.67;0.93;;;17.40;51.00;;;;;;5066093;28;20197;-60
2021/01/27 08:50:35;;;;;;;0.75;0.75;;;17.40;51.10;;;;;;5083927;28;20166;-59
2021/01/27 08:53:10;;;;;;;3.30;1.27;;;17.50;51.10;;;;;;5084053;28;20241;-60
2021/01/27 08:55:46;;;;;;;2.75;0.90;;;17.50;51.20;;;;;;5065961;28;20550;-61
2021/01/27 08:58:23;;;;;;;0.98;0.80;;;17.50;51.50;;;;;;5083829;28;20382;-61
2021/01/27 09:00:49;;;;;;;1.52;1.05;;;17.50;51.60;;;;;;5065818;28;20646;-63
2021/01/27 09:03:37;;;;;;;0.95;0.80;;;17.50;51.60;;;;;;5084154;28;20174;-63
2021/01/27 09:06:27;;;;;;;2.35;1.13;;;17.50;51.40;;;;;;5070875;28;20182;-62
2021/01/27 09:08:55;;;;;;;1.00;0.90;;;17.60;51.40;;;;;;5070059;28;20228;-62
2021/01/27 09:11:20;;;;;;;1.38;0.85;;;17.80;51.10;;;;;;5065543;28;20170;-63
2021/01/27 09:13:46;;;;;;;1.55;0.93;;;17.90;50.90;;;;;;5065866;28;20178;-62
2021/01/27 09:16:11;;;;;;;4.25;0.95;;;18.10;50.70;;;;;;5083499;28;20200;-62
2021/01/27 09:18:37;;;;;;;0.93;0.80;;;18.40;50.40;;;;;;5083618;28;20281;-63
2021/01/27 09:21:05;;;;;;;3.38;1.20;;;18.60;49.90;;;;;;5065798;28;20284;-63
2021/01/27 09:23:31;;;;;;;2.00;0.95;;;18.80;49.50;;;;;;5065825;28;20184;-62
2021/01/27 09:26:00;;;;;;;1.25;0.70;;;19.00;49.40;;;;;;5066085;28;20162;-62
2021/01/27 09:28:26;;;;;;;1.13;0.90;;;19.30;49.10;;;;;;5087360;28;20210;-61
2021/01/27 09:30:52;;;;;;;1.10;0.65;;;19.40;48.70;;;;;;5069353;28;20555;-61
2021/01/27 09:33:34;;;;;;;1.00;0.90;;;19.50;48.60;;;;;;5069219;28;20176;-62
2021/01/27 09:36:10;;;;;;;0.88;0.70;;;19.60;48.50;;;;;;5087514;28;20166;-61
2021/01/27 09:38:36;;;;;;;1.33;0.70;;;19.60;49.20;;;;;;5069013;28;20546;-61
2021/01/27 09:41:13;;;;;;;1.00;0.90;;;19.60;48.60;;;;;;5087538;28;20181;-62
2021/01/27 09:43:44;;;;;;;1.05;0.65;;;19.50;48.70;;;;;;5069497;28;20173;-56
2021/01/27 09:46:40;;;;;;;1.92;0.98;;;19.50;48.70;;;;;;5070261;28;20537;-63
2021/01/27 09:49:08;;;;;;;1.55;0.90;;;19.60;48.80;;;;;;5052913;28;20224;-61
2021/01/27 09:51:33;;;;;;;0.70;0.70;;;19.60;48.90;;;;;;5069141;28;20231;-63
2021/01/27 09:54:00;;;;;;;1.83;0.80;;;19.40;49.00;;;;;;5069211;28;20174;-59
2021/01/27 09:56:27;;;;;;;1.42;0.90;;;19.40;49.10;;;;;;5068790;28;20174;-61
2021/01/27 09:58:53;;;;;;;2.88;0.90;;;19.40;49.70;;;;;;5068919;28;20177;-60
2021/01/27 10:01:20;;;;;;;1.98;1.10;;;19.30;49.30;;;;;;5069189;28;20170;-60
2021/01/27 10:03:54;;;;;;;0.75;0.75;;;19.30;49.50;;;;;;5087235;28;20166;-61
2021/01/27 10:06:32;;;;;;;1.58;0.80;;;19.30;49.60;;;;;;5086855;28;20201;-60
2021/01/27 10:08:58;;;;;;;1.75;0.90;;;19.30;49.60;;;;;;5086881;28;20209;-60
2021/01/27 10:11:32;;;;;;;2.13;0.77;;;19.20;49.70;;;;;;5068711;28;20355;-61
2021/01/27 10:14:09;;;;;;;1.85;0.77;;;19.20;49.70;;;;;;5086668;28;20178;-60
2021/01/27 10:16:53;;;;;;;0.70;0.70;;;19.10;49.70;;;;;;5069857;28;20188;-61
2021/01/27 10:19:21;;;;;;;1.20;1.10;;;19.20;49.90;;;;;;5068463;28;20170;-61
2021/01/27 10:21:47;;;;;;;3.38;1.00;;;19.20;49.80;;;;;;5086722;28;20176;-61
2021/01/27 10:24:47;;;;;;;1.17;0.65;;;19.10;49.90;;;;;;5068543;28;20174;-60
2021/01/27 10:27:17;;;;;;;1.70;1.10;;;19.20;49.90;;;;;;5086162;28;20194;-59
2021/01/27 10:29:42;;;;;;;1.50;0.63;;;19.20;49.90;;;;;;5085314;28;20220;-59
2021/01/27 10:32:21;;;;;;;1.83;0.70;;;19.20;50.00;;;;;;5086242;28;20170;-60
2021/01/27 10:34:50;;;;;;;1.48;0.80;;;19.10;50.00;;;;;;5086235;28;20174;-60
2021/01/27 10:37:32;;;;;;;1.77;0.73;;;19.10;50.10;;;;;;5067810;28;20197;-60
2021/01/27 10:40:23;;;;;;;1.30;0.70;;;19.20;50.00;;;;;;5085650;28;20176;-60
2021/01/27 10:43:12;;;;;;;1.60;0.70;;;19.20;50.00;;;;;;5067594;28;20166;-61
2021/01/27 10:45:41;;;;;;;0.90;0.90;;;19.20;50.00;;;;;;5069730;28;20284;-61
2021/01/27 10:48:09;;;;;;;0.60;0.60;;;19.10;50.00;;;;;;5084870;28;20206;-60
2021/01/27 10:50:36;;;;;;;1.08;0.60;;;19.10;50.00;;;;;;5085437;28;20170;-60
2021/01/27 10:53:03;;;;;;;2.50;0.82;;;19.10;50.00;;;;;;5085501;28;20174;-59
2021/01/27 10:55:31;;;;;;;1.40;0.88;;;19.10;50.00;;;;;;5066888;28;20177;-60
2021/01/27 10:58:10;;;;;;;1.38;0.75;;;19.10;50.10;;;;;;5067368;28;20177;-60
2021/01/27 11:00:36;;;;;;;1.52;0.73;;;19.10;50.00;;;;;;5085748;28;20185;-60
2021/01/27 11:03:03;;;;;;;1.30;0.80;;;19.10;50.10;;;;;;5085620;28;20178;-61
2021/01/27 11:05:29;;;;;;;1.05;0.88;;;19.00;50.10;;;;;;5085553;28;20253;-60
2021/01/27 11:07:55;;;;;;;1.27;0.60;;;19.00;50.20;;;;;;5085580;28;20293;-61
2021/01/27 11:10:21;;;;;;;1.83;0.50;;;18.90;50.30;;;;;;5067768;28;20621;-61
2021/01/27 11:12:47;;;;;;;0.70;0.70;;;18.80;50.40;;;;;;5085645;28;20915;-61
2021/01/27 11:15:12;;;;;;;0.70;0.70;;;18.80;50.50;;;;;;5067743;28;20193;-59
2021/01/27 11:17:38;;;;;;;1.77;1.00;;;18.80;50.50;;;;;;5085577;28;20176;-61
2021/01/27 11:20:05;;;;;;;0.68;0.68;;;18.80;50.50;;;;;;5085488;28;20209;-61
2021/01/27 11:22:31;;;;;;;0.70;0.70;;;18.80;50.60;;;;;;5067207;28;20197;-62
2021/01/27 11:24:56;;;;;;;0.90;0.70;;;18.80;50.50;;;;;;5085353;28;20170;-61
2021/01/27 11:27:22;;;;;;;0.52;0.52;;;18.80;50.50;;;;;;5085336;28;20542;-61
2021/01/27 11:29:48;;;;;;;0.80;0.70;;;18.80;50.50;;;;;;5085236;28;20206;-61
2021/01/27 11:32:13;;;;;;;0.60;0.60;;;18.80;50.50;;;;;;5085205;28;20708;-62
2021/01/27 11:34:41;;;;;;;1.50;0.68;;;18.80;50.50;;;;;;5066911;28;20173;-62
2021/01/27 11:37:07;;;;;;;1.02;0.80;;;18.80;50.50;;;;;;5084980;28;20264;-59
2021/01/27 11:39:32;;;;;;;1.35;0.70;;;18.80;50.50;;;;;;5085125;28;20256;-61
2021/01/27 11:41:59;;;;;;;0.70;0.70;;;18.70;50.60;;;;;;5085215;28;20256;-61
2021/01/27 11:44:24;;;;;;;1.73;1.00;;;18.70;50.70;;;;;;5067079;28;20217;-61
2021/01/27 11:46:50;;;;;;;0.70;0.70;;;18.60;50.80;;;;;;5085140;28;20182;-62
2021/01/27 11:49:15;;;;;;;1.85;0.60;;;18.60;50.90;;;;;;5084382;28;20221;-61
2021/01/27 11:51:41;;;;;;;0.77;0.68;;;18.60;51.00;;;;;;5084473;28;20545;-62
2021/01/27 11:54:07;;;;;;;1.05;0.88;;;18.60;51.00;;;;;;5084817;28;20170;-62
2021/01/27 11:56:32;;;;;;;0.77;0.65;;;18.60;51.00;;;;;;5084808;28;20257;-62
2021/01/27 11:58:58;;;;;;;1.60;0.80;;;18.60;51.00;;;;;;5084695;28;20173;-60
2021/01/27 12:01:30;;;;;;;1.50;0.68;;;18.60;50.90;;;;;;5084717;28;20194;-59
2021/01/27 12:03:55;;;;;;;0.77;0.77;;;18.70;50.90;;;;;;5066695;28;20170;-59
2021/01/27 12:06:21;;;;;;;1.55;0.57;;;18.70;50.80;;;;;;5084643;28;20181;-59
2021/01/27 12:08:46;;;;;;;0.80;0.80;;;18.70;50.70;;;;;;5084738;28;20637;-59
2021/01/27 12:11:12;;;;;;;0.70;0.70;;;18.80;50.70;;;;;;5084834;28;20170;-61
2021/01/27 12:13:38;;;;;;;0.60;0.60;;;18.80;50.60;;;;;;5066436;28;20173;-60
2021/01/27 12:16:03;;;;;;;0.75;0.70;;;18.80;50.60;;;;;;5084516;28;20522;-60
2021/01/27 12:18:29;;;;;;;0.50;0.50;;;18.80;50.70;;;;;;5066355;28;20547;-57
2021/01/27 12:20:55;;;;;;;0.77;0.77;;;18.80;50.70;;;;;;5084400;28;20174;-60
2021/01/27 12:23:20;;;;;;;1.65;0.70;;;18.70;50.70;;;;;;5084599;28;20174;-61
2021/01/27 12:25:46;;;;;;;0.60;0.60;;;18.70;50.90;;;;;;5066591;28;20262;-62
2021/01/27 12:28:12;;;;;;;1.00;0.90;;;18.70;51.00;;;;;;5084235;28;20213;-61
2021/01/27 12:30:38;;;;;;;6.85;0.93;;;18.60;51.00;;;;;;5066809;28;20201;-61
2021/01/27 12:33:03;;;;;;;0.70;0.70;;;18.60;51.10;;;;;;5084327;28;20620;-62
2021/01/27 12:35:29;;;;;;;2.13;0.80;;;18.60;51.10;;;;;;5084151;28;20255;-61
2021/01/27 12:37:54;;;;;;;1.70;1.10;;;18.50;51.00;;;;;;5084190;28;20169;-59
2021/01/27 12:40:21;;;;;;;0.95;0.70;;;18.50;51.10;;;;;;5084286;28;20169;-60
2021/01/27 12:42:46;;;;;;;1.58;1.00;;;18.60;51.10;;;;;;5084308;28;20248;-61
2021/01/27 12:45:13;;;;;;;1.65;1.02;;;18.70;51.10;;;;;;5084480;28;20185;-60
2021/01/27 12:47:38;;;;;;;0.93;0.88;;;18.70;51.00;;;;;;5084147;28;20266;-61
2021/01/27 12:50:05;;;;;;;1.38;1.13;;;18.80;51.00;;;;;;5084013;28;20322;-61
2021/01/27 12:52:31;;;;;;;1.42;1.10;;;18.70;51.00;;;;;;5066138;28;20256;-57
2021/01/27 12:54:56;;;;;;;2.05;1.08;;;18.60;51.10;;;;;;5083854;28;20315;-61
2021/01/27 12:57:22;;;;;;;1.50;1.40;;;18.60;51.30;;;;;;5084184;28;20185;-59
2021/01/27 12:59:48;;;;;;;2.20;1.00;;;18.50;51.50;;;;;;5084276;28;20260;-60
2021/01/27 13:02:13;;;;;;;1.77;0.90;;;18.50;51.60;;;;;;5087859;28;20177;-61
2021/01/27 13:04:39;;;;;;;2.42;1.10;;;18.40;51.60;;;;;;5087933;28;20181;-60
2021/01/27 13:07:05;;;;;;;2.00;0.90;;;18.50;51.60;;;;;;5070275;28;20174;-61
2021/01/27 13:09:30;;;;;;;2.22;0.93;;;18.50;51.50;;;;;;5087851;28;20216;-60
2021/01/27 13:11:56;;;;;;;1.48;1.10;;;18.50;51.50;;;;;;5069729;28;20231;-62
2021/01/27 13:14:22;;;;;;;1.17;1.00;;;18.50;51.50;;;;;;5087953;28;21003;-62